Berriatua, Spain
Current Conditions -  °F | °C
As of 7:00 PM on Saturday 20 Dec 2014 (Local Time) from LEBB Reporting Station
Broken Clouds Broken Clouds  
Wind Chill: 13°   Ceiling: 1200
Heat Index: 13°   Visibility: 4mi
Dew Point: 13°   Wind: 0mph
Humidity: 100%   Direction: NA
Pressure: 30.56"   Gusts: NA
Location:  43.32°N, 2.47°W
Report Text: LEBB 201800Z 00000KT 6000 FEW005 BKN012 BKN032 13/13 Q1035 NOSIG
Loading
Personal Weather Stations






























Interactive Weather Map New forecast layout! Learn more

10-Day Weather Forecast

Advertisements
Track Severe Weather on mobile